Time;durP1;ratioP1;P1;durP2;ratioP2;P2;SDS_P1;SDS_P2;PMS_P1;PMS_P2;Temp;Humidity;BMP_temperature;BMP_pressure;BME280_temperature;BME280_humidity;BME280_pressure;Samples;Min_cycle;Max_cycle;Signal;HPM_P1;HPM_P2
2022/08/04 03:01:46;;;;;;;;;;;19.40;99.90;;;;;;5353216;23;20047;-80
2022/08/04 03:04:24;;;;;;;9.88;3.88;;;19.40;99.90;;;;;;4975827;28;19921;-76
2022/08/04 03:07:42;;;;;;;10.77;3.58;;;19.40;99.90;;;;;;4975834;28;20405;-76
2022/08/04 03:10:52;;;;;;;10.57;5.15;;;19.40;99.90;;;;;;4964480;28;20160;-79
2022/08/04 03:13:17;;;;;;;9.82;5.07;;;19.30;99.90;;;;;;4955714;29;20043;-76
2022/08/04 03:16:14;;;;;;;11.75;5.22;;;19.30;99.90;;;;;;4956435;29;20389;-80
2022/08/04 03:18:59;;;;;;;8.95;3.88;;;19.30;99.90;;;;;;4955975;29;20081;-80
2022/08/04 03:21:52;;;;;;;12.73;4.22;;;19.30;99.90;;;;;;4956091;29;20042;-79
2022/08/04 03:24:55;;;;;;;11.07;4.25;;;19.30;99.90;;;;;;4955820;29;20043;-81
2022/08/04 03:27:39;;;;;;;10.30;4.47;;;19.30;99.90;;;;;;4955718;29;20054;-78
2022/08/04 03:30:19;;;;;;;12.73;4.90;;;19.30;99.90;;;;;;4954842;28;20498;-78
2022/08/04 03:33:03;;;;;;;13.07;4.88;;;19.20;99.90;;;;;;4957315;28;20063;-77
2022/08/04 03:35:50;;;;;;;9.27;4.65;;;19.20;99.90;;;;;;4955821;29;20047;-78
2022/08/04 03:38:56;;;;;;;11.73;4.90;;;19.20;99.90;;;;;;4955909;29;20047;-76
2022/08/04 03:41:55;;;;;;;11.52;5.30;;;19.10;99.90;;;;;;4955489;29;20131;-76
2022/08/04 03:44:44;;;;;;;12.70;5.47;;;19.10;99.90;;;;;;4955532;29;20046;-79
2022/08/04 03:47:19;;;;;;;9.23;5.07;;;19.10;99.90;;;;;;4955343;29;20047;-78
2022/08/04 03:49:56;;;;;;;12.65;5.60;;;19.10;99.90;;;;;;4955432;29;20035;-80
2022/08/04 03:56:10;;;;;;;11.63;4.90;;;19.10;99.90;;;;;;4971240;28;20062;-78
2022/08/04 03:58:44;;;;;;;10.75;5.57;;;19.10;99.90;;;;;;4939114;29;20051;-81
2022/08/04 04:01:32;;;;;;;9.07;4.90;;;19.00;99.90;;;;;;4955001;29;20039;-79
2022/08/04 04:04:28;;;;;;;9.27;5.38;;;19.00;99.90;;;;;;4954673;29;20337;-80
2022/08/04 04:07:15;;;;;;;11.30;6.00;;;19.00;99.90;;;;;;4954927;29;20047;-76
2022/08/04 04:10:16;;;;;;;9.73;5.85;;;19.00;99.90;;;;;;4954556;29;20054;-76
2022/08/04 04:13:00;;;;;;;11.15;5.22;;;18.90;99.90;;;;;;4973182;28;20042;-78
2022/08/04 04:15:55;;;;;;;8.68;5.50;;;18.90;99.90;;;;;;4957299;28;20051;-80
2022/08/04 04:18:48;;;;;;;13.05;6.30;;;18.90;99.90;;;;;;4956096;29;20051;-80
2022/08/04 04:21:28;;;;;;;10.90;5.25;;;19.00;99.90;;;;;;4956431;28;20079;-77
2022/08/04 04:24:07;;;;;;;9.15;4.85;;;19.00;99.90;;;;;;4938793;28;20476;-77
2022/08/04 04:26:45;;;;;;;11.05;5.00;;;19.00;99.90;;;;;;4955002;29;20078;-78
2022/08/04 04:29:43;;;;;;;12.57;6.25;;;19.00;99.90;;;;;;4956374;28;20529;-81
2022/08/04 04:32:33;;;;;;;12.25;5.53;;;19.00;99.90;;;;;;4954508;29;20046;-77
2022/08/04 04:35:26;;;;;;;13.13;6.03;;;19.00;99.90;;;;;;4954574;29;20047;-80
2022/08/04 04:38:13;;;;;;;13.77;7.00;;;18.90;99.90;;;;;;4954490;29;20098;-78
2022/08/04 04:40:52;;;;;;;11.48;5.57;;;18.90;99.90;;;;;;4954852;29;20081;-80
2022/08/04 04:43:58;;;;;;;10.63;5.72;;;18.90;99.90;;;;;;4954090;28;20051;-80
2022/08/04 04:46:40;;;;;;;14.00;5.70;;;18.90;99.90;;;;;;4954752;29;20139;-77
2022/08/04 04:49:30;;;;;;;10.77;5.60;;;19.00;99.90;;;;;;4955953;28;20044;-79
2022/08/04 04:52:19;;;;;;;11.70;5.65;;;19.00;99.90;;;;;;4954379;29;20134;-75
2022/08/04 04:54:59;;;;;;;12.02;6.35;;;19.00;99.90;;;;;;4954526;29;20051;-75
2022/08/04 04:57:29;;;;;;;9.55;5.47;;;19.00;99.90;;;;;;4954367;29;20039;-78
2022/08/04 05:00:07;;;;;;;16.52;6.45;;;19.10;99.90;;;;;;4954326;29;20039;-78
2022/08/04 05:03:06;;;;;;;9.73;5.80;;;19.10;99.90;;;;;;4954118;29;20051;-79
2022/08/04 05:05:47;;;;;;;10.82;5.90;;;19.20;99.90;;;;;;4938209;29;20035;-81
2022/08/04 05:08:31;;;;;;;13.25;6.32;;;19.20;99.90;;;;;;4938221;29;20043;-81
2022/08/04 05:11:11;;;;;;;13.38;6.60;;;19.20;99.90;;;;;;4954114;29;20039;-80
2022/08/04 05:14:19;;;;;;;15.10;5.97;;;19.30;99.90;;;;;;4954356;29;20070;-77
2022/08/04 05:17:11;;;;;;;12.80;6.32;;;19.30;99.90;;;;;;4972558;28;20043;-79
2022/08/04 05:19:56;;;;;;;9.52;5.90;;;19.30;99.90;;;;;;4956709;28;20126;-77
2022/08/04 05:22:33;;;;;;;16.43;6.73;;;19.40;99.90;;;;;;4958465;28;20059;-78
2022/08/04 05:25:07;;;;;;;9.20;5.80;;;19.40;99.90;;;;;;4955204;28;20513;-77
2022/08/04 05:27:40;;;;;;;12.48;6.35;;;19.50;99.90;;;;;;4954339;28;20395;-81
2022/08/04 05:30:07;;;;;;;14.52;6.90;;;19.50;99.90;;;;;;4954096;29;20047;-78
2022/08/04 05:32:59;;;;;;;14.45;6.95;;;19.60;99.90;;;;;;4954201;29;20047;-80
2022/08/04 05:35:34;;;;;;;10.77;6.47;;;19.70;99.90;;;;;;4937721;28;20086;-79
2022/08/04 05:38:02;;;;;;;11.40;6.68;;;19.70;99.90;;;;;;4954053;29;20047;-80
2022/08/04 05:40:28;;;;;;;10.50;6.15;;;19.80;99.90;;;;;;4953709;29;20047;-80
2022/08/04 05:42:56;;;;;;;12.15;7.40;;;19.90;99.90;;;;;;4953974;29;20042;-80
2022/08/04 05:45:23;;;;;;;12.27;6.63;;;19.90;99.90;;;;;;4953599;28;20043;-78
2022/08/04 05:47:51;;;;;;;11.45;5.97;;;20.00;99.90;;;;;;4953586;29;20075;-81
2022/08/04 05:50:18;;;;;;;10.85;6.50;;;20.00;99.90;;;;;;4954372;29;20070;-77
2022/08/04 05:52:45;;;;;;;12.73;6.70;;;20.20;99.90;;;;;;4953501;28;20043;-75
2022/08/04 05:55:12;;;;;;;13.55;7.47;;;20.20;99.90;;;;;;4957744;28;20403;-79
2022/08/04 05:57:42;;;;;;;12.95;7.45;;;20.30;99.90;;;;;;4957090;29;20098;-77
2022/08/04 06:00:09;;;;;;;18.88;7.30;;;20.40;99.90;;;;;;4958819;28;20051;-79
2022/08/04 06:02:36;;;;;;;14.20;7.25;;;20.50;99.90;;;;;;4957060;29;20055;-79
2022/08/04 06:05:06;;;;;;;14.30;7.43;;;20.60;99.90;;;;;;4957121;29;20039;-79
2022/08/04 06:07:32;;;;;;;13.60;6.65;;;20.70;99.90;;;;;;4958504;28;20050;-79
2022/08/04 06:09:59;;;;;;;12.90;6.10;;;20.80;99.90;;;;;;4957114;29;20043;-79
2022/08/04 06:12:42;;;;;;;12.13;6.22;;;20.90;99.90;;;;;;4956844;29;20035;-76
2022/08/04 06:15:13;;;;;;;9.57;5.55;;;21.10;99.90;;;;;;4957054;29;20054;-79
2022/08/04 06:17:51;;;;;;;9.07;4.97;;;21.20;99.90;;;;;;4958171;29;20126;-77
2022/08/04 06:20:19;;;;;;;15.25;5.63;;;21.40;99.90;;;;;;4956806;29;20043;-78
2022/08/04 06:23:00;;;;;;;11.88;4.93;;;21.50;99.90;;;;;;4940798;28;20481;-77
2022/08/04 06:25:31;;;;;;;13.45;4.60;;;21.70;99.90;;;;;;4940468;28;20161;-78
2022/08/04 06:27:58;;;;;;;13.60;4.20;;;21.90;99.90;;;;;;4956876;29;20066;-76
2022/08/04 06:30:26;;;;;;;13.20;4.80;;;22.00;99.90;;;;;;4956607;29;20383;-77
2022/08/04 06:32:56;;;;;;;10.85;4.25;;;22.20;99.90;;;;;;4956355;29;20455;-78
2022/08/04 06:35:24;;;;;;;12.18;3.92;;;22.30;99.90;;;;;;4957356;29;20035;-78
2022/08/04 06:37:52;;;;;;;15.00;4.20;;;22.40;99.90;;;;;;4957909;28;20051;-77
2022/08/04 06:40:20;;;;;;;9.10;4.20;;;22.50;99.90;;;;;;4957814;28;20419;-79
2022/08/04 06:42:47;;;;;;;9.77;4.10;;;22.60;99.90;;;;;;4956284;29;20046;-76
2022/08/04 06:45:14;;;;;;;11.18;4.25;;;22.70;99.90;;;;;;4957562;28;20094;-76
2022/08/04 06:47:42;;;;;;;10.80;4.50;;;22.80;99.90;;;;;;4940216;29;20039;-78
2022/08/04 06:50:11;;;;;;;12.82;4.00;;;22.80;99.90;;;;;;4956119;29;20043;-79
2022/08/04 06:52:37;;;;;;;10.38;4.03;;;23.00;99.90;;;;;;4956150;29;20142;-78
2022/08/04 06:55:04;;;;;;;9.32;3.95;;;23.10;99.90;;;;;;4956011;29;20042;-78
2022/08/04 06:57:32;;;;;;;10.55;3.75;;;23.10;99.90;;;;;;4956261;29;20082;-76
2022/08/04 07:00:06;;;;;;;11.25;4.05;;;23.20;99.90;;;;;;4955795;29;20070;-79
2022/08/04 07:03:06;;;;;;;7.93;3.45;;;23.20;99.90;;;;;;4955704;29;20090;-78
2022/08/04 07:05:32;;;;;;;9.10;3.88;;;23.30;99.90;;;;;;4955595;28;20047;-78
2022/08/04 07:07:58;;;;;;;14.52;3.92;;;23.40;99.90;;;;;;4954645;29;20639;-79
2022/08/04 07:10:26;;;;;;;12.20;4.22;;;23.40;99.90;;;;;;4939337;29;20042;-77
2022/08/04 07:12:53;;;;;;;11.13;3.60;;;23.50;99.90;;;;;;4954380;29;20035;-79
2022/08/04 07:15:20;;;;;;;9.82;3.63;;;23.60;99.90;;;;;;4956657;28;20118;-81
2022/08/04 07:17:48;;;;;;;10.07;4.05;;;23.60;99.90;;;;;;4956138;28;20043;-77
2022/08/04 07:20:13;;;;;;;10.98;4.50;;;23.70;99.90;;;;;;4956238;28;20035;-79
2022/08/04 07:22:42;;;;;;;16.67;4.90;;;23.80;99.90;;;;;;4955273;29;20051;-78
2022/08/04 07:25:09;;;;;;;14.63;4.88;;;23.90;99.90;;;;;;4955398;29;20050;-78
2022/08/04 07:27:35;;;;;;;9.40;4.70;;;24.00;99.90;;;;;;4956884;28;20082;-82
2022/08/04 07:30:04;;;;;;;13.05;5.15;;;24.00;99.90;;;;;;4955207;29;20146;-79
2022/08/04 07:32:31;;;;;;;9.00;4.68;;;24.00;99.90;;;;;;4955689;29;20070;-81
2022/08/04 07:34:57;;;;;;;9.93;4.90;;;24.00;99.90;;;;;;4956553;28;20057;-80
2022/08/04 07:37:23;;;;;;;11.50;5.55;;;24.00;99.90;;;;;;4954926;29;20118;-78
2022/08/04 07:39:49;;;;;;;10.65;5.20;;;24.00;99.90;;;;;;4955044;29;20074;-79
2022/08/04 07:42:18;;;;;;;11.98;5.60;;;24.00;99.90;;;;;;4956264;28;20045;-79
2022/08/04 07:44:44;;;;;;;10.27;5.03;;;24.00;99.90;;;;;;4954794;29;20098;-79
2022/08/04 07:47:10;;;;;;;16.15;5.03;;;24.10;99.90;;;;;;4955120;29;20447;-79
2022/08/04 07:49:36;;;;;;;9.18;4.68;;;24.10;99.90;;;;;;4955108;29;20046;-80
2022/08/04 07:52:03;;;;;;;12.70;4.30;;;24.10;99.90;;;;;;4954967;29;20035;-79
2022/08/04 07:54:29;;;;;;;9.88;3.88;;;24.10;99.90;;;;;;4955404;29;20043;-79
2022/08/04 07:56:55;;;;;;;14.50;4.65;;;24.10;99.90;;;;;;4954754;29;20050;-80
2022/08/04 07:59:21;;;;;;;11.10;4.22;;;24.20;99.90;;;;;;4954664;29;20039;-78
2022/08/04 08:01:47;;;;;;;9.57;3.92;;;24.10;99.90;;;;;;4954746;29;20395;-77
2022/08/04 08:04:14;;;;;;;12.55;4.10;;;24.10;99.90;;;;;;4939019;29;20087;-81
2022/08/04 08:06:40;;;;;;;12.60;4.55;;;24.10;99.90;;;;;;4954722;29;20050;-78
2022/08/04 08:09:15;;;;;;;11.75;5.00;;;24.00;99.90;;;;;;4956241;28;20101;-81
2022/08/04 08:11:42;;;;;;;10.35;4.78;;;24.00;99.90;;;;;;4954833;29;20047;-77
2022/08/04 08:14:08;;;;;;;12.15;4.75;;;24.00;99.90;;;;;;4955934;28;20050;-81
2022/08/04 08:16:35;;;;;;;9.93;5.32;;;23.90;99.90;;;;;;4954231;28;20047;-78
2022/08/04 08:19:01;;;;;;;11.75;5.57;;;23.90;99.90;;;;;;4955753;28;20051;-79
2022/08/04 08:21:27;;;;;;;11.25;5.10;;;23.80;99.90;;;;;;4954743;29;20046;-81
2022/08/04 08:23:53;;;;;;;9.77;5.38;;;23.80;99.90;;;;;;4954991;29;20090;-77
2022/08/04 08:26:19;;;;;;;9.80;5.22;;;23.80;99.90;;;;;;4954940;29;20079;-78
2022/08/04 08:28:45;;;;;;;9.65;4.90;;;23.80;99.90;;;;;;4955615;28;20452;-78
2022/08/04 08:31:11;;;;;;;11.63;5.45;;;23.80;99.90;;;;;;4954920;29;20060;-80
2022/08/04 08:33:37;;;;;;;12.43;5.07;;;23.80;99.90;;;;;;4955100;29;20039;-81
2022/08/04 08:36:25;;;;;;;10.77;4.55;;;23.80;99.90;;;;;;4955624;28;20480;-78
2022/08/04 08:38:53;;;;;;;10.23;4.90;;;23.70;99.90;;;;;;4954729;29;20047;-82
2022/08/04 08:41:49;;;;;;;11.73;4.93;;;23.80;99.90;;;;;;4955518;28;20039;-80
2022/08/04 08:44:33;;;;;;;10.20;4.78;;;23.90;99.90;;;;;;4954413;29;20442;-81
2022/08/04 08:47:24;;;;;;;9.55;4.10;;;23.90;99.90;;;;;;4954649;29;20047;-77
2022/08/04 08:50:02;;;;;;;13.65;5.00;;;23.90;99.90;;;;;;4955635;28;20039;-80
2022/08/04 08:52:30;;;;;;;11.68;4.30;;;23.90;99.90;;;;;;4954051;29;20460;-80
2022/08/04 08:55:11;;;;;;;8.85;3.70;;;23.90;99.90;;;;;;4954578;29;20157;-78
2022/08/04 08:58:16;;;;;;;10.38;3.45;;;24.00;99.90;;;;;;4954643;29;20047;-81
2022/08/04 09:01:11;;;;;;;8.52;3.80;;;24.10;99.90;;;;;;4938241;29;20388;-79
2022/08/04 09:04:07;;;;;;;9.10;3.70;;;24.10;99.90;;;;;;4938375;29;20372;-80
2022/08/04 09:07:06;;;;;;;9.20;3.05;;;24.10;99.90;;;;;;4954015;29;20287;-77
2022/08/04 09:09:46;;;;;;;7.43;3.28;;;24.10;99.90;;;;;;4954026;29;20039;-78
2022/08/04 09:12:29;;;;;;;7.75;3.20;;;24.20;99.90;;;;;;4943692;28;20044;-79
2022/08/04 09:15:06;;;;;;;7.68;2.97;;;24.20;99.90;;;;;;4955073;28;20044;-78
2022/08/04 09:18:04;;;;;;;8.82;3.67;;;24.20;99.90;;;;;;4955389;28;20084;-79
2022/08/04 09:20:46;;;;;;;8.48;2.75;;;24.30;99.90;;;;;;4953656;29;20051;-79
2022/08/04 09:23:29;;;;;;;7.45;2.80;;;24.50;99.90;;;;;;4938457;29;20357;-77
2022/08/04 09:26:28;;;;;;;9.52;2.80;;;24.60;99.90;;;;;;4954161;29;20106;-79
2022/08/04 09:29:17;;;;;;;9.85;2.05;;;24.90;99.90;;;;;;4954486;28;20122;-79
2022/08/04 09:31:54;;;;;;;8.95;2.20;;;24.90;99.90;;;;;;4957990;29;20050;-78
2022/08/04 09:34:45;;;;;;;7.03;2.00;;;25.00;99.90;;;;;;4958044;29;20043;-79
2022/08/04 09:37:32;;;;;;;7.13;2.28;;;25.00;99.90;;;;;;4926338;29;20454;-79
2022/08/04 09:40:16;;;;;;;11.00;2.33;;;25.10;99.90;;;;;;4941964;29;20527;-76
2022/08/04 09:43:19;;;;;;;5.85;1.88;;;25.10;99.90;;;;;;4957539;29;20043;-79
2022/08/04 09:45:57;;;;;;;8.25;1.75;;;25.20;99.90;;;;;;4935610;29;20499;-79
2022/08/04 09:48:46;;;;;;;8.32;2.30;;;25.20;99.90;;;;;;4957469;29;20051;-80
2022/08/04 09:51:39;;;;;;;8.25;2.08;;;25.20;99.90;;;;;;4956628;28;20047;-80
2022/08/04 09:54:20;;;;;;;9.70;2.30;;;25.20;99.90;;;;;;4954728;28;20047;-80
2022/08/04 09:57:10;;;;;;;9.50;1.98;;;25.20;99.90;;;;;;4957057;29;20134;-80
2022/08/04 10:00:08;;;;;;;11.32;2.30;;;25.30;99.90;;;;;;4958276;28;20043;-82
2022/08/04 10:02:39;;;;;;;10.25;2.20;;;25.40;99.90;;;;;;4972558;28;20055;-82
2022/08/04 10:05:13;;;;;;;7.88;2.55;;;25.40;99.90;;;;;;4959022;28;20043;-77
2022/08/04 10:08:00;;;;;;;7.10;2.08;;;25.50;99.90;;;;;;4957218;29;20047;-81
2022/08/04 10:10:33;;;;;;;10.07;2.15;;;25.40;99.90;;;;;;4958183;29;20047;-78
2022/08/04 10:13:33;;;;;;;7.13;2.13;;;25.50;99.90;;;;;;4942341;28;20039;-79
2022/08/04 10:16:17;;;;;;;10.18;2.55;;;25.50;99.90;;;;;;4957551;29;20142;-76
2022/08/04 10:19:19;;;;;;;13.85;2.20;;;25.70;99.90;;;;;;4942107;28;20047;-77
2022/08/04 10:21:57;;;;;;;7.90;2.20;;;25.80;99.90;;;;;;4956796;29;20129;-80
2022/08/04 10:24:49;;;;;;;4.10;1.75;;;25.80;99.90;;;;;;4958082;28;20394;-79
2022/08/04 10:27:45;;;;;;;4.65;2.22;;;25.80;99.90;;;;;;4957928;28;20051;-81
2022/08/04 10:30:12;;;;;;;5.35;1.65;;;25.90;99.90;;;;;;4957124;28;20054;-78
2022/08/04 10:33:15;;;;;;;6.22;1.70;;;26.10;99.90;;;;;;4957398;28;20118;-81
2022/08/04 10:35:47;;;;;;;7.55;1.50;;;26.30;99.90;;;;;;4956320;29;20078;-79
2022/08/04 10:38:25;;;;;;;7.93;1.63;;;26.30;99.90;;;;;;4956467;29;20047;-79
2022/08/04 10:41:16;;;;;;;3.55;1.58;;;26.30;99.90;;;;;;4956609;28;20047;-79
2022/08/04 10:44:02;;;;;;;5.25;1.60;;;26.40;99.90;;;;;;4956684;28;20109;-78
2022/08/04 10:46:33;;;;;;;7.05;1.55;;;26.50;99.90;;;;;;4956293;29;20047;-80
2022/08/04 10:49:15;;;;;;;4.45;1.10;;;26.60;99.90;;;;;;4954702;28;20054;-79
2022/08/04 10:51:50;;;;;;;3.20;1.25;;;26.50;99.90;;;;;;4940084;29;20130;-79
2022/08/04 10:54:42;;;;;;;5.32;1.10;;;26.40;99.90;;;;;;4957718;28;20122;-79
2022/08/04 10:57:32;;;;;;;4.63;1.40;;;26.40;99.90;;;;;;4957527;28;20039;-80
2022/08/04 11:00:03;;;;;;;3.90;1.25;;;26.20;99.90;;;;;;4956595;28;20047;-80
2022/08/04 11:03:02;;;;;;;4.40;1.20;;;26.20;99.90;;;;;;4956107;29;20110;-77
2022/08/04 11:05:31;;;;;;;3.67;1.30;;;26.00;99.90;;;;;;4956117;29;20043;-79
2022/08/04 11:08:02;;;;;;;5.57;1.42;;;25.90;99.90;;;;;;4956109;29;20051;-79
2022/08/04 11:10:34;;;;;;;4.60;1.55;;;25.80;99.90;;;;;;4956124;29;20475;-78
2022/08/04 11:13:03;;;;;;;2.85;1.17;;;25.80;99.90;;;;;;4957183;28;20476;-79
2022/08/04 11:15:57;;;;;;;5.07;1.70;;;25.80;99.90;;;;;;4956307;28;20130;-78
2022/08/04 11:18:32;;;;;;;4.05;1.50;;;25.70;99.90;;;;;;4957161;28;20039;-83
2022/08/04 11:21:07;;;;;;;6.60;1.63;;;25.70;99.90;;;;;;4940080;29;20053;-82
2022/08/04 11:23:34;;;;;;;;;;;25.60;99.90;;;;;;4956682;29;20040;-82
2022/08/04 11:26:29;;;;;;;3.03;1.20;;;25.60;99.90;;;;;;4956248;29;19918;-81
2022/08/04 11:29:07;;;;;;;4.10;1.45;;;25.60;99.90;;;;;;4955866;29;20119;-77
2022/08/04 11:31:42;;;;;;;5.47;1.33;;;25.70;99.90;;;;;;4956572;28;20043;-76
2022/08/04 11:34:10;;;;;;;2.97;1.17;;;25.70;99.90;;;;;;4955151;29;20487;-79
2022/08/04 11:36:46;;;;;;;3.45;1.52;;;25.40;99.90;;;;;;4955263;29;20055;-79
2022/08/04 11:39:28;;;;;;;3.45;1.40;;;25.30;99.90;;;;;;4956496;28;20039;-80
2022/08/04 11:42:15;;;;;;;2.72;1.00;;;25.20;99.90;;;;;;4938417;28;20042;-75
2022/08/04 11:44:48;;;;;;;3.20;1.20;;;25.20;99.90;;;;;;4938219;29;20039;-77
2022/08/04 11:48:09;;;;;;;3.30;1.27;;;25.20;99.90;;;;;;4954027;29;20050;-76
2022/08/04 11:50:49;;;;;;;5.65;1.30;;;25.20;99.90;;;;;;4954019;28;20126;-78
2022/08/04 11:53:21;;;;;;;5.13;1.80;;;25.20;99.90;;;;;;4954418;29;20558;-76
2022/08/04 11:55:51;;;;;;;3.15;1.10;;;25.00;99.90;;;;;;4955497;28;20397;-74
2022/08/04 11:58:17;;;;;;;4.00;1.42;;;25.00;99.90;;;;;;4954354;28;20050;-78
2022/08/04 12:01:10;;;;;;;2.20;1.15;;;25.00;99.90;;;;;;4954067;29;20059;-76
2022/08/04 12:03:58;;;;;;;3.83;1.27;;;25.00;99.90;;;;;;4947399;29;20090;-76
2022/08/04 12:06:39;;;;;;;4.70;1.38;;;25.00;99.90;;;;;;4938714;29;20039;-75
2022/08/04 12:09:33;;;;;;;2.90;1.10;;;24.80;99.90;;;;;;4954695;29;20043;-80
2022/08/04 12:12:07;;;;;;;2.65;1.10;;;24.70;99.90;;;;;;4945815;29;20403;-79
2022/08/04 12:14:54;;;;;;;3.13;1.10;;;24.70;99.90;;;;;;4961142;28;20043;-76
2022/08/04 12:17:45;;;;;;;3.58;1.08;;;24.70;99.90;;;;;;4954740;29;20043;-79
2022/08/04 12:20:16;;;;;;;4.93;1.15;;;24.70;99.90;;;;;;4937297;29;20039;-78
2022/08/04 12:22:47;;;;;;;3.92;1.35;;;24.70;99.90;;;;;;4935442;29;20046;-77
2022/08/04 12:25:22;;;;;;;4.30;1.40;;;24.70;99.90;;;;;;4935404;29;20050;-78
2022/08/04 12:28:30;;;;;;;3.65;1.45;;;24.80;99.90;;;;;;4936618;29;20039;-78
2022/08/04 12:31:04;;;;;;;4.05;1.25;;;24.80;99.90;;;;;;4936116;29;20051;-80
2022/08/04 12:33:51;;;;;;;3.40;1.40;;;24.90;99.90;;;;;;4936537;29;20035;-78
2022/08/04 12:36:54;;;;;;;3.92;1.65;;;25.10;99.90;;;;;;4936483;29;20123;-78
2022/08/04 12:39:21;;;;;;;3.90;1.38;;;25.10;99.90;;;;;;4936704;29;20116;-80
2022/08/04 12:42:22;;;;;;;5.72;1.50;;;25.00;99.90;;;;;;4936449;29;20043;-77
2022/08/04 12:44:53;;;;;;;2.58;0.98;;;25.00;99.90;;;;;;4935188;29;20147;-79
2022/08/04 12:47:23;;;;;;;4.22;1.10;;;24.90;99.90;;;;;;4935418;29;20118;-78
2022/08/04 12:49:51;;;;;;;3.97;1.33;;;25.00;99.90;;;;;;4935473;29;20054;-77
2022/08/04 12:52:19;;;;;;;2.70;1.10;;;25.00;99.90;;;;;;4935959;29;20071;-78
2022/08/04 12:54:50;;;;;;;3.55;1.15;;;25.00;99.90;;;;;;4936566;29;20046;-76
2022/08/04 12:57:17;;;;;;;4.68;1.33;;;25.00;99.90;;;;;;4935245;29;20514;-76
2022/08/04 12:59:43;;;;;;;3.97;1.25;;;25.00;99.90;;;;;;4934736;29;20048;-77
2022/08/04 13:02:15;;;;;;;2.83;1.35;;;25.00;99.90;;;;;;4935450;29;20059;-80
2022/08/04 13:04:46;;;;;;;3.80;1.20;;;25.10;99.90;;;;;;4940038;29;20559;-81
2022/08/04 13:07:17;;;;;;;4.43;1.40;;;25.40;99.90;;;;;;4938980;29;20054;-79
2022/08/04 13:09:45;;;;;;;3.05;1.13;;;25.70;99.90;;;;;;4939375;29;20043;-81
2022/08/04 13:12:18;;;;;;;3.90;1.20;;;26.00;99.90;;;;;;4939020;29;20119;-78
2022/08/04 13:14:46;;;;;;;4.95;1.30;;;26.30;99.90;;;;;;4939900;29;20134;-78
2022/08/04 13:17:13;;;;;;;3.55;1.00;;;26.40;99.90;;;;;;4939987;29;20114;-80
2022/08/04 13:19:44;;;;;;;2.65;1.10;;;26.50;99.90;;;;;;4938601;29;20043;-77
2022/08/04 13:22:11;;;;;;;4.28;1.27;;;26.70;99.90;;;;;;4938468;29;20047;-79
2022/08/04 13:24:38;;;;;;;3.50;1.10;;;26.70;99.90;;;;;;4939766;29;20051;-79
2022/08/04 13:27:10;;;;;;;3.35;1.20;;;26.80;99.90;;;;;;4938983;29;20048;-79
2022/08/04 13:29:44;;;;;;;2.92;1.25;;;26.70;99.90;;;;;;4938965;29;20537;-78
2022/08/04 13:32:15;;;;;;;3.28;1.20;;;26.80;99.90;;;;;;4938714;29;20047;-78
2022/08/04 13:34:42;;;;;;;3.40;1.15;;;26.90;99.90;;;;;;4938435;29;20043;-77
2022/08/04 13:37:09;;;;;;;3.35;1.25;;;26.90;99.90;;;;;;4939555;29;20099;-78
2022/08/04 13:39:36;;;;;;;3.03;1.05;;;27.20;99.90;;;;;;4938323;29;20051;-80
2022/08/04 13:42:07;;;;;;;5.32;1.20;;;27.30;99.90;;;;;;4938025;29;20103;-78
2022/08/04 13:44:37;;;;;;;2.72;1.02;;;27.40;99.90;;;;;;4938296;29;20130;-77
2022/08/04 13:47:11;;;;;;;3.47;1.15;;;27.30;99.90;;;;;;4939258;29;20373;-78
2022/08/04 13:49:36;;;;;;;4.78;1.05;;;27.00;99.90;;;;;;4938541;29;20083;-79
2022/08/04 13:52:05;;;;;;;2.60;0.95;;;27.00;99.90;;;;;;4937613;29;20071;-77
2022/08/04 13:54:41;;;;;;;3.53;1.08;;;27.00;99.90;;;;;;4939291;29;20047;-79
2022/08/04 13:57:13;;;;;;;3.08;0.90;;;27.00;99.90;;;;;;4922570;29;20036;-80
2022/08/04 13:59:45;;;;;;;2.78;0.85;;;26.90;99.90;;;;;;4922094;29;20050;-78
2022/08/04 14:02:41;;;;;;;3.15;1.05;;;26.70;99.90;;;;;;4937521;29;20040;-80
2022/08/04 14:05:18;;;;;;;5.10;1.00;;;26.70;99.90;;;;;;4939118;29;20044;-77
2022/08/04 14:07:53;;;;;;;2.72;1.00;;;26.80;99.90;;;;;;4938825;29;20044;-79
2022/08/04 14:10:19;;;;;;;2.92;1.10;;;27.00;99.90;;;;;;4937748;29;20424;-78
2022/08/04 14:12:50;;;;;;;3.13;1.05;;;26.90;99.90;;;;;;4937537;29;20099;-80
2022/08/04 14:15:39;;;;;;;6.30;1.30;;;26.70;99.90;;;;;;4936562;29;20094;-81
2022/08/04 14:18:23;;;;;;;3.38;1.30;;;26.80;99.90;;;;;;4938265;29;20044;-80
2022/08/04 14:21:13;;;;;;;7.50;1.33;;;27.00;99.90;;;;;;4921596;29;20443;-79
2022/08/04 14:23:42;;;;;;;2.60;1.10;;;27.20;99.90;;;;;;4937456;29;20071;-77
2022/08/04 14:26:13;;;;;;;2.50;1.00;;;27.20;99.90;;;;;;4937216;29;20036;-78
2022/08/04 14:28:39;;;;;;;4.28;1.35;;;27.10;99.90;;;;;;4937480;29;20055;-78
2022/08/04 14:31:10;;;;;;;4.63;1.20;;;27.10;99.90;;;;;;4938603;29;20396;-78
2022/08/04 14:33:38;;;;;;;4.35;1.30;;;27.10;99.90;;;;;;4938963;29;20048;-80
2022/08/04 14:36:04;;;;;;;5.15;1.20;;;27.10;99.90;;;;;;4937247;29;20048;-76
2022/08/04 14:38:45;;;;;;;5.22;1.40;;;27.00;99.90;;;;;;4921709;29;20047;-77
2022/08/04 14:41:12;;;;;;;3.88;1.10;;;27.00;99.90;;;;;;4937094;29;20117;-78
2022/08/04 14:43:58;;;;;;;5.95;1.60;;;26.80;99.90;;;;;;4937058;29;20472;-78
2022/08/04 14:46:26;;;;;;;5.38;1.10;;;26.90;99.90;;;;;;4936797;29;20048;-78
2022/08/04 14:49:05;;;;;;;5.93;1.23;;;26.80;99.90;;;;;;4937978;29;20075;-79
2022/08/04 14:51:42;;;;;;;4.40;1.30;;;26.70;99.90;;;;;;4920903;29;20516;-77
2022/08/04 14:54:11;;;;;;;4.45;1.63;;;26.70;99.90;;;;;;4936744;29;20051;-80
2022/08/04 14:56:39;;;;;;;3.30;1.00;;;26.80;99.90;;;;;;4936923;29;20051;-77
2022/08/04 14:59:10;;;;;;;4.95;1.40;;;26.90;99.90;;;;;;4936907;29;20488;-79
2022/08/04 15:01:40;;;;;;;3.58;1.13;;;26.70;99.90;;;;;;4938209;29;20125;-76
2022/08/04 15:04:07;;;;;;;5.97;1.20;;;26.60;99.90;;;;;;4937058;29;20074;-77
2022/08/04 15:06:34;;;;;;;5.05;1.50;;;26.30;99.90;;;;;;4937031;29;20396;-81
2022/08/04 15:09:06;;;;;;;4.57;1.40;;;26.30;99.90;;;;;;4936491;29;20484;-81
2022/08/04 15:11:34;;;;;;;4.95;1.48;;;26.30;99.90;;;;;;4936420;29;20118;-80
2022/08/04 15:14:00;;;;;;;3.80;1.23;;;26.30;99.90;;;;;;4936582;29;20043;-78
2022/08/04 15:16:28;;;;;;;4.63;1.70;;;26.30;99.90;;;;;;4937719;29;20039;-78
2022/08/04 15:18:55;;;;;;;5.00;1.50;;;26.30;99.90;;;;;;4936436;29;20055;-77
2022/08/04 15:21:22;;;;;;;5.57;1.55;;;26.20;99.90;;;;;;4936403;29;20055;-78
2022/08/04 15:23:49;;;;;;;3.45;1.23;;;26.10;99.90;;;;;;4936484;29;20480;-79
2022/08/04 15:26:21;;;;;;;4.25;1.55;;;26.10;99.90;;;;;;4936460;29;20377;-79
2022/08/04 15:28:57;;;;;;;6.22;1.10;;;26.10;99.90;;;;;;4938268;29;20043;-80
2022/08/04 15:31:24;;;;;;;4.18;1.33;;;25.90;99.90;;;;;;4937518;29;20040;-78
2022/08/04 15:33:49;;;;;;;6.18;1.15;;;25.70;99.90;;;;;;4937687;29;20436;-77
2022/08/04 15:36:24;;;;;;;4.30;1.20;;;25.60;99.90;;;;;;4936825;29;20097;-80
2022/08/04 15:38:55;;;;;;;5.05;1.63;;;25.60;99.90;;;;;;4953741;28;20098;-79
2022/08/04 15:41:37;;;;;;;3.65;1.17;;;25.60;99.90;;;;;;4939486;29;20558;-79
2022/08/04 15:45:00;;;;;;;6.15;1.75;;;25.60;99.90;;;;;;4955401;29;20047;-79
2022/08/04 15:47:26;;;;;;;7.18;2.13;;;25.70;99.90;;;;;;4973529;28;20047;-77
2022/08/04 15:50:11;;;;;;;10.15;2.58;;;25.60;99.90;;;;;;4957515;28;20117;-79
2022/08/04 15:52:56;;;;;;;4.70;1.48;;;25.60;99.90;;;;;;4970774;28;20062;-79
2022/08/04 15:55:41;;;;;;;3.92;1.40;;;25.70;99.90;;;;;;4955312;29;20051;-83
2022/08/04 15:58:08;;;;;;;4.85;1.17;;;25.80;99.90;;;;;;4955313;29;20054;-80
2022/08/04 16:00:49;;;;;;;4.82;1.50;;;25.80;99.90;;;;;;4956438;28;20098;-80
2022/08/04 16:03:37;;;;;;;4.68;1.80;;;25.90;99.90;;;;;;4939037;29;20050;-81
2022/08/04 16:06:06;;;;;;;3.33;1.30;;;26.00;99.90;;;;;;4956164;28;20046;-78
2022/08/04 16:08:59;;;;;;;4.63;1.30;;;25.90;99.90;;;;;;4956376;28;20074;-78
2022/08/04 16:14:08;;;;;;;5.53;1.30;;;25.50;99.90;;;;;;4971752;28;20146;-81
2022/08/04 16:16:37;;;;;;;6.32;1.30;;;25.50;99.90;;;;;;4955054;29;20047;-80
2022/08/04 16:19:08;;;;;;;4.95;1.42;;;25.40;99.90;;;;;;4955162;29;20047;-80
2022/08/04 16:21:49;;;;;;;5.32;1.85;;;25.30;99.90;;;;;;4939510;29;20122;-79
2022/08/04 16:24:36;;;;;;;4.43;1.40;;;25.20;99.90;;;;;;4955198;29;20062;-79
2022/08/04 16:27:12;;;;;;;4.47;1.52;;;25.10;99.90;;;;;;4955064;29;20046;-80
2022/08/04 16:29:41;;;;;;;5.30;1.50;;;25.00;99.90;;;;;;4955399;29;20125;-80
2022/08/04 16:32:11;;;;;;;3.58;1.45;;;24.90;99.90;;;;;;4939694;29;20039;-80
2022/08/04 16:34:44;;;;;;;10.45;2.10;;;24.90;99.90;;;;;;4938887;29;20039;-81
2022/08/04 16:37:11;;;;;;;4.93;1.40;;;24.80;99.90;;;;;;4954611;29;20098;-81
2022/08/04 16:39:38;;;;;;;6.75;1.45;;;24.70;99.90;;;;;;4954544;29;20045;-79
2022/08/04 16:42:26;;;;;;;3.65;1.80;;;24.70;99.90;;;;;;4954578;29;20078;-79